createdAt,value
2022-08-31T00:00:43.007Z,18.02
2022-08-31T00:01:42.993Z,18.03
2022-08-31T00:02:42.923Z,18.04
2022-08-31T00:03:42.883Z,18.09
2022-08-31T00:04:42.941Z,18.07
2022-08-31T00:05:42.882Z,18.06
2022-08-31T00:06:42.853Z,17.99
2022-08-31T00:07:42.844Z,17.97
2022-08-31T00:08:42.822Z,17.97
2022-08-31T00:09:42.854Z,17.95
2022-08-31T00:10:44.964Z,17.94
2022-08-31T00:11:42.802Z,17.92
2022-08-31T00:12:42.778Z,17.95
2022-08-31T00:13:42.774Z,17.91
2022-08-31T00:14:42.774Z,17.85
2022-08-31T00:15:42.746Z,17.74
2022-08-31T00:16:42.820Z,17.73
2022-08-31T00:17:42.724Z,17.73
2022-08-31T00:18:42.730Z,17.76
2022-08-31T00:19:42.717Z,17.78
2022-08-31T00:20:42.696Z,17.79
2022-08-31T00:21:42.791Z,17.82
2022-08-31T00:22:42.730Z,17.84
2022-08-31T00:23:42.677Z,17.84
2022-08-31T00:24:42.695Z,17.88
2022-08-31T00:25:42.644Z,17.89
2022-08-31T00:26:42.652Z,17.91
2022-08-31T00:27:42.616Z,17.94
2022-08-31T00:28:42.633Z,17.95
2022-08-31T00:29:42.611Z,17.95
2022-08-31T00:30:43.567Z,17.95
2022-08-31T00:31:42.612Z,17.97
2022-08-31T00:32:42.617Z,17.97
2022-08-31T00:33:42.570Z,17.97
2022-08-31T00:34:43.807Z,17.95
2022-08-31T00:35:42.535Z,17.97
2022-08-31T00:36:42.512Z,17.97
2022-08-31T00:37:42.502Z,17.97
2022-08-31T00:38:42.513Z,17.97
2022-08-31T00:39:42.492Z,17.95
2022-08-31T00:40:44.923Z,17.95
2022-08-31T00:41:42.483Z,17.94
2022-08-31T00:42:42.456Z,17.94
2022-08-31T00:43:42.455Z,17.91
2022-08-31T00:44:42.467Z,17.87
2022-08-31T00:45:42.496Z,17.84
2022-08-31T00:46:42.435Z,17.82
2022-08-31T00:47:43.008Z,17.79
2022-08-31T00:48:42.383Z,17.79
2022-08-31T00:49:42.417Z,17.76
2022-08-31T00:50:42.355Z,17.74
2022-08-31T00:51:43.306Z,17.71
2022-08-31T00:52:42.330Z,17.70
2022-08-31T00:53:42.349Z,17.67
2022-08-31T00:54:42.296Z,17.64
2022-08-31T00:55:42.306Z,17.63
2022-08-31T00:56:42.287Z,17.63
2022-08-31T00:57:42.294Z,17.59
2022-08-31T00:58:42.258Z,17.59
2022-08-31T00:59:42.248Z,17.53
2022-08-31T01:00:42.294Z,17.53
2022-08-31T01:01:42.302Z,17.54
2022-08-31T01:02:42.213Z,17.55
2022-08-31T01:03:42.229Z,17.54
2022-08-31T01:04:42.192Z,17.51
2022-08-31T01:05:42.203Z,17.48
2022-08-31T01:06:42.175Z,17.48
2022-08-31T01:07:42.155Z,17.50
2022-08-31T01:08:42.170Z,17.50
2022-08-31T01:09:53.246Z,17.50
2022-08-31T01:10:43.112Z,17.51
2022-08-31T01:11:42.117Z,17.51
2022-08-31T01:12:42.093Z,17.47
2022-08-31T01:13:42.095Z,17.47
2022-08-31T01:14:42.104Z,17.41
2022-08-31T01:15:42.101Z,17.40
2022-08-31T01:16:42.120Z,17.36
2022-08-31T01:17:42.065Z,17.38
2022-08-31T01:18:42.054Z,17.36
2022-08-31T01:19:42.030Z,17.33
2022-08-31T01:20:42.016Z,17.32
2022-08-31T01:21:43.087Z,17.30
2022-08-31T01:22:41.989Z,17.28
2022-08-31T01:23:41.986Z,17.28
2022-08-31T01:24:41.967Z,17.28
2022-08-31T01:25:41.957Z,17.28
2022-08-31T01:26:41.938Z,17.28
2022-08-31T01:27:41.986Z,17.23
2022-08-31T01:28:41.953Z,17.17
2022-08-31T01:29:41.907Z,17.13
2022-08-31T01:30:41.912Z,17.11
2022-08-31T01:31:41.928Z,17.11
2022-08-31T01:32:41.893Z,17.13
2022-08-31T01:33:41.883Z,17.15
2022-08-31T01:34:41.865Z,17.17
2022-08-31T01:35:41.906Z,17.18
2022-08-31T01:36:41.825Z,17.22
2022-08-31T01:37:41.819Z,17.23
2022-08-31T01:38:41.833Z,17.23
2022-08-31T01:39:41.812Z,17.18
2022-08-31T01:40:41.801Z,17.11
2022-08-31T01:41:41.774Z,17.08
2022-08-31T01:42:41.768Z,17.08
2022-08-31T01:43:41.769Z,17.06
2022-08-31T01:44:41.745Z,17.06
2022-08-31T01:45:41.740Z,17.07
2022-08-31T01:46:41.760Z,17.08
2022-08-31T01:47:41.826Z,17.10
2022-08-31T01:48:41.784Z,17.11
2022-08-31T01:49:41.689Z,17.14
2022-08-31T01:50:41.679Z,17.14
2022-08-31T01:51:41.658Z,17.18
2022-08-31T01:52:41.646Z,17.17
2022-08-31T01:53:42.659Z,17.18
2022-08-31T01:54:41.658Z,17.20
2022-08-31T01:55:41.610Z,17.18
2022-08-31T01:56:41.596Z,17.18
2022-08-31T01:57:41.600Z,17.18
2022-08-31T01:58:41.582Z,17.20
2022-08-31T01:59:41.583Z,17.20
2022-08-31T02:00:41.606Z,17.22
2022-08-31T02:01:41.746Z,17.20
2022-08-31T02:02:42.010Z,17.20
2022-08-31T02:03:41.522Z,17.20
2022-08-31T02:04:41.524Z,17.22
2022-08-31T02:05:41.537Z,17.20
2022-08-31T02:06:41.486Z,17.17
2022-08-31T02:07:41.462Z,17.14
2022-08-31T02:08:41.474Z,17.11
2022-08-31T02:09:41.444Z,17.03
2022-08-31T02:10:41.483Z,16.98
2022-08-31T02:11:41.441Z,16.95
2022-08-31T02:12:41.415Z,16.96
2022-08-31T02:13:41.395Z,16.95
2022-08-31T02:14:41.385Z,16.96
2022-08-31T02:15:41.447Z,16.95
2022-08-31T02:16:41.447Z,16.96
2022-08-31T02:17:41.357Z,16.99
2022-08-31T02:18:41.346Z,17.00
2022-08-31T02:19:41.332Z,17.00
2022-08-31T02:20:41.332Z,16.98
2022-08-31T02:21:41.317Z,16.96
2022-08-31T02:22:41.309Z,16.95
2022-08-31T02:23:41.313Z,16.95
2022-08-31T02:24:41.275Z,16.93
2022-08-31T02:25:41.283Z,16.89
2022-08-31T02:26:41.284Z,16.86
2022-08-31T02:27:41.260Z,16.83
2022-08-31T02:28:41.253Z,16.80
2022-08-31T02:29:41.232Z,16.80
2022-08-31T02:30:41.236Z,16.81
2022-08-31T02:31:41.244Z,16.81
2022-08-31T02:32:41.244Z,16.80
2022-08-31T02:33:41.169Z,16.80
2022-08-31T02:34:41.199Z,16.81
2022-08-31T02:35:41.148Z,16.81
2022-08-31T02:36:41.143Z,16.83
2022-08-31T02:37:41.155Z,16.83
2022-08-31T02:38:41.115Z,16.81
2022-08-31T02:39:41.120Z,16.78
2022-08-31T02:40:41.238Z,16.77
2022-08-31T02:41:41.107Z,16.77
2022-08-31T02:42:52.845Z,16.75
2022-08-31T02:43:42.096Z,16.73
2022-08-31T02:44:41.045Z,16.73
2022-08-31T02:45:41.048Z,16.71
2022-08-31T02:46:41.085Z,16.71
2022-08-31T02:47:41.048Z,16.70
2022-08-31T02:48:41.008Z,16.68
2022-08-31T02:49:40.990Z,16.68
2022-08-31T02:50:41.008Z,16.65
2022-08-31T02:51:40.960Z,16.60
2022-08-31T02:52:40.980Z,16.59
2022-08-31T02:53:40.941Z,16.59
2022-08-31T02:54:40.973Z,16.60
2022-08-31T02:55:40.959Z,16.62
2022-08-31T02:56:40.901Z,16.62
2022-08-31T02:57:40.953Z,16.62
2022-08-31T02:58:41.823Z,16.59
2022-08-31T02:59:40.875Z,16.58
2022-08-31T03:00:40.872Z,16.58
2022-08-31T03:01:40.969Z,16.60
2022-08-31T03:02:40.851Z,16.62
2022-08-31T03:03:40.832Z,16.60
2022-08-31T03:04:41.805Z,16.59
2022-08-31T03:05:40.810Z,16.60
2022-08-31T03:06:40.802Z,16.60
2022-08-31T03:07:40.776Z,16.60
2022-08-31T03:08:40.805Z,16.59
2022-08-31T03:09:40.786Z,16.60
2022-08-31T03:10:40.772Z,16.60
2022-08-31T03:11:40.732Z,16.59
2022-08-31T03:12:40.729Z,16.60
2022-08-31T03:13:40.748Z,16.60
2022-08-31T03:14:40.688Z,16.59
2022-08-31T03:15:40.732Z,16.58
2022-08-31T03:16:40.675Z,16.58
2022-08-31T03:17:40.676Z,16.56
2022-08-31T03:18:40.655Z,16.56
2022-08-31T03:19:40.654Z,16.58
2022-08-31T03:20:40.633Z,16.58
2022-08-31T03:21:40.625Z,16.58
2022-08-31T03:22:40.601Z,16.58
2022-08-31T03:23:41.602Z,16.56
2022-08-31T03:24:40.597Z,16.55
2022-08-31T03:25:40.572Z,16.52
2022-08-31T03:26:40.568Z,16.45
2022-08-31T03:27:40.546Z,16.45
2022-08-31T03:28:40.555Z,16.48
2022-08-31T03:29:40.543Z,16.41
2022-08-31T03:30:40.636Z,16.38
2022-08-31T03:31:40.530Z,16.34
2022-08-31T03:32:40.504Z,16.31
2022-08-31T03:33:40.482Z,16.33
2022-08-31T03:34:40.503Z,16.33
2022-08-31T03:35:40.498Z,16.34
2022-08-31T03:36:40.495Z,16.34
2022-08-31T03:37:40.447Z,16.27
2022-08-31T03:38:40.430Z,16.22
2022-08-31T03:39:40.436Z,16.20
2022-08-31T03:40:40.536Z,16.23
2022-08-31T03:41:40.388Z,16.22
2022-08-31T03:42:40.377Z,16.23
2022-08-31T03:43:40.360Z,16.23
2022-08-31T03:44:40.374Z,16.25
2022-08-31T03:45:40.347Z,16.25
2022-08-31T03:46:40.391Z,16.27
2022-08-31T03:47:43.474Z,16.33
2022-08-31T03:48:40.302Z,16.37
2022-08-31T03:49:40.311Z,16.35
2022-08-31T03:50:40.282Z,16.35
2022-08-31T03:51:40.286Z,16.34
2022-08-31T03:52:40.262Z,16.35
2022-08-31T03:53:40.296Z,16.34
2022-08-31T03:54:40.272Z,16.33
2022-08-31T03:55:40.261Z,16.30
2022-08-31T03:56:40.244Z,16.27
2022-08-31T03:57:40.214Z,16.27
2022-08-31T03:58:40.193Z,16.25
2022-08-31T03:59:40.193Z,16.22
2022-08-31T04:00:40.164Z,16.15
2022-08-31T04:01:40.230Z,16.12
2022-08-31T04:02:40.226Z,16.09
2022-08-31T04:03:40.140Z,16.04
2022-08-31T04:04:40.133Z,16.04
2022-08-31T04:05:40.109Z,16.04
2022-08-31T04:06:40.119Z,16.04
2022-08-31T04:07:42.869Z,16.06
2022-08-31T04:08:40.078Z,16.07
2022-08-31T04:09:40.080Z,16.11
2022-08-31T04:10:40.058Z,16.12
2022-08-31T04:11:44.603Z,16.11
2022-08-31T04:12:41.051Z,16.15
2022-08-31T04:13:40.029Z,16.15
2022-08-31T04:14:40.010Z,16.16
2022-08-31T04:15:40.065Z,16.18
2022-08-31T04:16:39.980Z,16.16
2022-08-31T04:17:39.981Z,16.16
2022-08-31T04:18:39.984Z,16.16
2022-08-31T04:19:39.972Z,16.15
2022-08-31T04:20:39.953Z,16.16
2022-08-31T04:21:39.922Z,16.15
2022-08-31T04:22:39.912Z,16.12
2022-08-31T04:23:39.913Z,16.09
2022-08-31T04:24:39.912Z,16.07
2022-08-31T04:25:39.895Z,15.99
2022-08-31T04:26:39.866Z,15.97
2022-08-31T04:27:39.854Z,15.96
2022-08-31T04:28:39.854Z,15.92
2022-08-31T04:29:39.850Z,15.86
2022-08-31T04:30:39.940Z,15.84
2022-08-31T04:31:39.814Z,15.81
2022-08-31T04:32:39.818Z,15.82
2022-08-31T04:33:39.819Z,15.85
2022-08-31T04:34:39.798Z,15.85
2022-08-31T04:35:39.766Z,15.86
2022-08-31T04:36:39.770Z,15.88
2022-08-31T04:37:43.312Z,15.89
2022-08-31T04:38:40.755Z,15.93
2022-08-31T04:39:50.831Z,15.97
2022-08-31T04:40:40.858Z,15.96
2022-08-31T04:41:39.711Z,15.97
2022-08-31T04:42:39.694Z,15.97
2022-08-31T04:43:39.675Z,15.96
2022-08-31T04:44:39.686Z,15.96
2022-08-31T04:45:39.722Z,15.93
2022-08-31T04:46:39.651Z,15.93
2022-08-31T04:47:39.651Z,15.93
2022-08-31T04:48:39.642Z,15.93
2022-08-31T04:49:39.622Z,15.89
2022-08-31T04:50:42.741Z,15.88
2022-08-31T04:51:39.623Z,15.86
2022-08-31T04:52:39.649Z,15.75
2022-08-31T04:53:39.579Z,15.74
2022-08-31T04:54:39.568Z,15.67
2022-08-31T04:55:39.561Z,15.64
2022-08-31T04:56:39.527Z,15.61
2022-08-31T04:57:39.589Z,15.61
2022-08-31T04:58:39.505Z,15.63
2022-08-31T04:59:39.613Z,15.61
2022-08-31T05:00:39.485Z,15.61
2022-08-31T05:01:42.834Z,15.64
2022-08-31T05:02:39.612Z,15.66
2022-08-31T05:03:39.481Z,15.67
2022-08-31T05:04:39.568Z,15.70
2022-08-31T05:05:39.444Z,15.68
2022-08-31T05:06:39.424Z,15.68
2022-08-31T05:07:39.440Z,15.68
2022-08-31T05:08:39.400Z,15.66
2022-08-31T05:09:39.396Z,15.66
2022-08-31T05:10:39.423Z,15.66
2022-08-31T05:11:39.367Z,15.66
2022-08-31T05:12:39.380Z,15.67
2022-08-31T05:13:39.348Z,15.72
2022-08-31T05:14:39.428Z,15.72
2022-08-31T05:15:39.385Z,15.72
2022-08-31T05:16:39.319Z,15.74
2022-08-31T05:17:39.291Z,15.74
2022-08-31T05:18:39.290Z,15.72
2022-08-31T05:19:41.325Z,15.68
2022-08-31T05:20:39.283Z,15.66
2022-08-31T05:21:39.453Z,15.68
2022-08-31T05:22:39.255Z,15.74
2022-08-31T05:23:39.253Z,15.76
2022-08-31T05:24:39.238Z,15.78
2022-08-31T05:25:39.204Z,15.81
2022-08-31T05:26:39.185Z,15.84
2022-08-31T05:27:39.185Z,15.78
2022-08-31T05:28:39.187Z,15.78
2022-08-31T05:29:39.156Z,15.78
2022-08-31T05:30:39.227Z,15.72
2022-08-31T05:31:39.159Z,15.66
2022-08-31T05:32:39.424Z,15.63
2022-08-31T05:33:39.110Z,15.61
2022-08-31T05:34:39.121Z,15.61
2022-08-31T05:35:39.098Z,15.66
2022-08-31T05:36:39.084Z,15.67
2022-08-31T05:37:39.065Z,15.64
2022-08-31T05:38:39.118Z,15.64
2022-08-31T05:39:39.160Z,15.68
2022-08-31T05:40:39.143Z,15.68
2022-08-31T05:41:39.040Z,15.68
2022-08-31T05:42:39.034Z,15.70
2022-08-31T05:43:39.000Z,15.76
2022-08-31T05:44:39.018Z,15.76
2022-08-31T05:45:39.959Z,15.76
2022-08-31T05:46:39.040Z,15.75
2022-08-31T05:47:38.966Z,15.74
2022-08-31T05:48:38.957Z,15.79
2022-08-31T05:49:41.299Z,15.78
2022-08-31T05:50:38.950Z,15.76
2022-08-31T05:51:38.920Z,15.78
2022-08-31T05:52:38.919Z,15.68
2022-08-31T05:53:38.879Z,15.67
2022-08-31T05:54:38.877Z,15.67
2022-08-31T05:55:38.860Z,15.68
2022-08-31T05:56:38.864Z,15.70
2022-08-31T05:57:38.845Z,15.70
2022-08-31T05:58:38.824Z,15.74
2022-08-31T05:59:38.831Z,15.79
2022-08-31T06:00:38.798Z,15.82
2022-08-31T06:01:38.842Z,15.85
2022-08-31T06:02:38.789Z,15.88
2022-08-31T06:03:38.761Z,15.85
2022-08-31T06:04:38.762Z,15.86
2022-08-31T06:05:38.837Z,15.88
2022-08-31T06:06:38.749Z,15.86
2022-08-31T06:07:38.719Z,15.78
2022-08-31T06:08:38.727Z,15.76
2022-08-31T06:09:38.719Z,15.78
2022-08-31T06:10:38.701Z,15.78
2022-08-31T06:11:38.695Z,15.78
2022-08-31T06:12:38.676Z,15.82
2022-08-31T06:13:38.642Z,15.85
2022-08-31T06:14:38.955Z,15.89
2022-08-31T06:15:39.521Z,15.88
2022-08-31T06:16:38.656Z,15.85
2022-08-31T06:17:38.624Z,15.85
2022-08-31T06:18:38.663Z,15.86
2022-08-31T06:19:38.579Z,15.84
2022-08-31T06:20:38.576Z,15.85
2022-08-31T06:21:38.598Z,15.85
2022-08-31T06:22:38.560Z,15.86
2022-08-31T06:23:38.547Z,15.92
2022-08-31T06:24:38.537Z,15.92
2022-08-31T06:25:38.544Z,15.94
2022-08-31T06:26:38.522Z,15.96
2022-08-31T06:27:38.491Z,15.99
2022-08-31T06:28:38.486Z,16.04
2022-08-31T06:29:38.502Z,16.09
2022-08-31T06:30:47.790Z,16.11
2022-08-31T06:31:39.478Z,16.06
2022-08-31T06:32:38.431Z,16.07
2022-08-31T06:33:38.429Z,16.12
2022-08-31T06:34:38.432Z,16.12
2022-08-31T06:35:38.396Z,16.04
2022-08-31T06:36:38.398Z,16.03
2022-08-31T06:37:38.384Z,15.96
2022-08-31T06:38:38.367Z,15.94
2022-08-31T06:39:38.378Z,15.94
2022-08-31T06:40:38.396Z,15.97
2022-08-31T06:41:38.340Z,16.00
2022-08-31T06:42:38.324Z,16.03
2022-08-31T06:43:38.313Z,16.12
2022-08-31T06:44:38.308Z,16.11
2022-08-31T06:45:38.279Z,16.12
2022-08-31T06:46:38.362Z,16.16
2022-08-31T06:47:38.261Z,16.20
2022-08-31T06:48:38.258Z,16.27
2022-08-31T06:49:38.256Z,16.30
2022-08-31T06:50:38.263Z,16.38
2022-08-31T06:51:38.459Z,16.38
2022-08-31T06:52:39.052Z,16.41
2022-08-31T06:53:38.186Z,16.44
2022-08-31T06:54:38.204Z,16.49
2022-08-31T06:55:38.164Z,16.55
2022-08-31T06:56:38.159Z,16.58
2022-08-31T06:57:38.178Z,16.59
2022-08-31T06:58:38.141Z,16.62
2022-08-31T06:59:38.139Z,16.63
2022-08-31T07:00:38.134Z,16.58
2022-08-31T07:01:38.184Z,16.56
2022-08-31T07:02:38.157Z,16.56
2022-08-31T07:03:38.077Z,16.59
2022-08-31T07:04:38.088Z,16.59
2022-08-31T07:05:38.137Z,16.63
2022-08-31T07:06:38.063Z,16.65
2022-08-31T07:07:38.032Z,16.60
2022-08-31T07:08:38.045Z,16.62
2022-08-31T07:09:38.044Z,16.63
2022-08-31T07:10:38.018Z,16.65
2022-08-31T07:11:42.160Z,16.62
2022-08-31T07:12:39.012Z,16.65
2022-08-31T07:13:37.969Z,16.70
2022-08-31T07:14:37.989Z,16.65
2022-08-31T07:15:37.963Z,16.63
2022-08-31T07:16:38.031Z,16.60
2022-08-31T07:17:37.923Z,16.63
2022-08-31T07:18:37.909Z,16.65
2022-08-31T07:19:37.889Z,16.68
2022-08-31T07:20:38.932Z,16.71
2022-08-31T07:21:37.909Z,16.75
2022-08-31T07:22:37.884Z,16.77
2022-08-31T07:23:37.849Z,16.80
2022-08-31T07:24:37.849Z,16.80
2022-08-31T07:25:37.868Z,16.81
2022-08-31T07:26:37.823Z,16.83
2022-08-31T07:27:37.810Z,16.86
2022-08-31T07:28:37.801Z,16.92
2022-08-31T07:29:37.774Z,16.99
2022-08-31T07:30:37.834Z,16.98
2022-08-31T07:31:37.786Z,16.99
2022-08-31T07:32:37.754Z,16.99
2022-08-31T07:33:37.756Z,17.00
2022-08-31T07:34:37.725Z,17.08
2022-08-31T07:35:37.725Z,17.17
2022-08-31T07:36:37.703Z,17.23
2022-08-31T07:37:37.708Z,17.32
2022-08-31T07:38:37.686Z,17.38
2022-08-31T07:39:37.665Z,17.47
2022-08-31T07:40:37.790Z,17.51
2022-08-31T07:41:37.645Z,17.44
2022-08-31T07:42:37.634Z,17.47
2022-08-31T07:43:37.628Z,17.54
2022-08-31T07:44:37.635Z,17.54
2022-08-31T07:45:39.400Z,17.59
2022-08-31T07:46:37.614Z,17.67
2022-08-31T07:47:37.585Z,17.71
2022-08-31T07:48:37.585Z,17.73
2022-08-31T07:49:37.548Z,17.74
2022-08-31T07:50:37.561Z,17.74
2022-08-31T07:51:37.537Z,17.74
2022-08-31T07:52:37.520Z,17.76
2022-08-31T07:53:37.508Z,17.78
2022-08-31T07:54:37.510Z,17.73
2022-08-31T07:55:37.520Z,17.73
2022-08-31T07:56:37.474Z,17.70
2022-08-31T07:57:37.470Z,17.78
2022-08-31T07:58:37.486Z,17.82
2022-08-31T07:59:37.441Z,17.85
2022-08-31T08:00:38.119Z,17.87
2022-08-31T08:01:37.474Z,17.88
2022-08-31T08:02:37.539Z,17.85
2022-08-31T08:03:37.407Z,17.88
2022-08-31T08:04:37.395Z,17.92
2022-08-31T08:05:37.390Z,17.95
2022-08-31T08:06:37.383Z,17.99
2022-08-31T08:07:37.346Z,18.06
2022-08-31T08:08:37.343Z,18.10
2022-08-31T08:09:37.347Z,18.18
2022-08-31T08:10:37.651Z,18.22
2022-08-31T08:11:37.308Z,18.33
2022-08-31T08:12:37.321Z,18.39
2022-08-31T08:13:37.282Z,18.46
2022-08-31T08:14:37.282Z,18.55
2022-08-31T08:15:37.282Z,18.61
2022-08-31T08:16:37.318Z,18.67
2022-08-31T08:17:37.287Z,18.68
2022-08-31T08:18:37.219Z,18.74
2022-08-31T08:19:37.244Z,18.70
2022-08-31T08:20:38.485Z,18.61
2022-08-31T08:21:37.216Z,18.64
2022-08-31T08:22:51.609Z,18.65
2022-08-31T08:23:38.222Z,18.58
2022-08-31T08:24:37.161Z,18.49
2022-08-31T08:25:37.144Z,18.52
2022-08-31T08:26:37.170Z,18.40
2022-08-31T08:27:37.123Z,18.33
2022-08-31T08:28:40.103Z,18.34
2022-08-31T08:29:37.165Z,18.40
2022-08-31T08:30:37.155Z,18.47
2022-08-31T08:31:37.115Z,18.57
2022-08-31T08:32:37.095Z,18.55
2022-08-31T08:33:37.055Z,18.61
2022-08-31T08:34:37.105Z,18.62
2022-08-31T08:35:37.036Z,18.62
2022-08-31T08:36:37.044Z,18.58
2022-08-31T08:37:57.171Z,18.61
2022-08-31T08:38:38.018Z,18.67
2022-08-31T08:39:36.992Z,18.68
2022-08-31T08:40:37.017Z,18.73
2022-08-31T08:41:36.966Z,18.77
2022-08-31T08:42:37.055Z,18.83
2022-08-31T08:43:37.020Z,18.87
2022-08-31T08:44:36.918Z,18.95
2022-08-31T08:45:37.046Z,18.98
2022-08-31T08:46:37.030Z,19.02
2022-08-31T08:47:38.439Z,19.06
2022-08-31T08:48:36.957Z,19.08
2022-08-31T08:49:36.912Z,19.10
2022-08-31T08:50:36.867Z,19.13
2022-08-31T08:51:36.859Z,19.20
2022-08-31T08:52:36.851Z,19.20
2022-08-31T08:53:36.832Z,19.24
2022-08-31T08:54:36.834Z,19.11
2022-08-31T08:55:36.801Z,19.05
2022-08-31T08:56:36.789Z,18.98
2022-08-31T08:57:36.783Z,18.94
2022-08-31T08:58:36.801Z,18.92
2022-08-31T08:59:36.787Z,18.92
2022-08-31T09:00:36.783Z,18.92
2022-08-31T09:01:36.832Z,18.97
2022-08-31T09:02:36.879Z,19.01
2022-08-31T09:03:36.716Z,19.02
2022-08-31T09:04:36.698Z,19.11
2022-08-31T09:05:36.694Z,19.13
2022-08-31T09:06:45.356Z,19.11
2022-08-31T09:07:37.694Z,19.11
2022-08-31T09:08:36.707Z,19.08
2022-08-31T09:09:36.649Z,19.05
2022-08-31T09:10:36.648Z,19.08
2022-08-31T09:11:36.624Z,19.08
2022-08-31T09:12:36.629Z,19.13
2022-08-31T09:13:36.610Z,19.11
2022-08-31T09:14:36.600Z,19.10
2022-08-31T09:15:37.014Z,19.08
2022-08-31T09:16:36.657Z,19.06
2022-08-31T09:17:36.553Z,19.06
2022-08-31T09:18:36.562Z,19.11
2022-08-31T09:19:36.584Z,19.14
2022-08-31T09:20:36.572Z,19.13
2022-08-31T09:21:36.506Z,19.14
2022-08-31T09:22:36.496Z,19.17
2022-08-31T09:23:36.486Z,19.13
2022-08-31T09:24:36.473Z,19.11
2022-08-31T09:25:36.483Z,19.08
2022-08-31T09:26:36.453Z,19.06
2022-08-31T09:27:36.447Z,19.06
2022-08-31T09:28:36.434Z,19.10
2022-08-31T09:29:37.396Z,19.10
2022-08-31T09:30:36.408Z,19.17
2022-08-31T09:31:36.439Z,19.21
2022-08-31T09:32:36.408Z,19.21
2022-08-31T09:33:36.379Z,19.18
2022-08-31T09:34:36.374Z,19.17
2022-08-31T09:35:36.347Z,19.21
2022-08-31T09:36:36.335Z,19.28
2022-08-31T09:37:36.326Z,19.31
2022-08-31T09:38:36.335Z,19.36
2022-08-31T09:39:37.119Z,19.46
2022-08-31T09:40:36.428Z,19.53
2022-08-31T09:41:36.319Z,19.55
2022-08-31T09:42:36.293Z,19.55
2022-08-31T09:43:36.304Z,19.47
2022-08-31T09:44:36.273Z,19.47
2022-08-31T09:45:41.250Z,19.50
2022-08-31T09:46:37.258Z,19.50
2022-08-31T09:47:36.258Z,19.51
2022-08-31T09:48:37.044Z,19.55
2022-08-31T09:49:36.201Z,19.57
2022-08-31T09:50:36.178Z,19.61
2022-08-31T09:51:36.195Z,19.70
2022-08-31T09:52:36.165Z,19.73
2022-08-31T09:53:36.149Z,19.69
2022-08-31T09:54:36.130Z,19.65
2022-08-31T09:55:36.127Z,19.63
2022-08-31T09:56:36.116Z,19.68
2022-08-31T09:57:36.153Z,19.72
2022-08-31T09:58:36.076Z,19.69
2022-08-31T09:59:36.100Z,19.73
2022-08-31T10:00:36.085Z,19.76
2022-08-31T10:01:36.154Z,19.79
2022-08-31T10:02:36.086Z,19.87
2022-08-31T10:03:36.028Z,19.91
2022-08-31T10:04:36.092Z,19.97
2022-08-31T10:05:36.103Z,20.05
2022-08-31T10:06:36.000Z,20.03
2022-08-31T10:07:35.983Z,19.97
2022-08-31T10:08:36.002Z,20.03
2022-08-31T10:09:35.965Z,20.06
2022-08-31T10:10:35.954Z,20.10
2022-08-31T10:11:35.943Z,20.16
2022-08-31T10:12:35.955Z,20.24
2022-08-31T10:13:35.930Z,20.25
2022-08-31T10:14:35.903Z,20.34
2022-08-31T10:15:35.962Z,20.39
2022-08-31T10:16:35.875Z,20.39
2022-08-31T10:17:35.922Z,20.31
2022-08-31T10:18:37.808Z,20.28
2022-08-31T10:19:35.861Z,20.24
2022-08-31T10:20:35.866Z,20.21
2022-08-31T10:21:35.832Z,20.30
2022-08-31T10:22:35.837Z,20.35
2022-08-31T10:23:35.811Z,20.46
2022-08-31T10:24:35.797Z,20.56
2022-08-31T10:25:35.802Z,20.66
2022-08-31T10:26:35.766Z,20.74
2022-08-31T10:27:35.759Z,20.81
2022-08-31T10:28:35.753Z,20.90
2022-08-31T10:29:35.756Z,20.83
2022-08-31T10:30:35.719Z,20.69
2022-08-31T10:31:35.830Z,20.61
2022-08-31T10:32:35.724Z,20.72
2022-08-31T10:33:35.692Z,20.80
2022-08-31T10:34:35.678Z,20.87
2022-08-31T10:35:35.674Z,20.84
2022-08-31T10:36:35.658Z,20.86
2022-08-31T10:37:35.703Z,20.96
2022-08-31T10:38:35.639Z,21.02
2022-08-31T10:39:35.615Z,21.05
2022-08-31T10:40:35.789Z,21.11
2022-08-31T10:41:35.639Z,21.16
2022-08-31T10:42:35.622Z,21.24
2022-08-31T10:43:35.608Z,21.17
2022-08-31T10:44:35.600Z,21.19
2022-08-31T10:45:35.548Z,21.19
2022-08-31T10:46:35.745Z,21.17
2022-08-31T10:47:35.568Z,21.19
2022-08-31T10:48:35.520Z,21.21
2022-08-31T10:49:35.533Z,21.19
2022-08-31T10:50:35.488Z,21.20
2022-08-31T10:51:35.520Z,21.29
2022-08-31T10:52:35.564Z,21.36
2022-08-31T10:53:39.755Z,21.39
2022-08-31T10:54:35.447Z,21.51
2022-08-31T10:55:35.436Z,21.61
2022-08-31T10:56:35.446Z,21.64
2022-08-31T10:57:35.482Z,21.63
2022-08-31T10:58:35.403Z,21.59
2022-08-31T10:59:35.407Z,21.39
2022-08-31T11:00:35.396Z,21.36
2022-08-31T11:01:35.493Z,21.44
2022-08-31T11:02:35.356Z,21.54
2022-08-31T11:03:35.406Z,21.63
2022-08-31T11:04:35.413Z,21.69
2022-08-31T11:05:35.341Z,21.76
2022-08-31T11:06:35.338Z,21.83
2022-08-31T11:07:35.333Z,21.90
2022-08-31T11:08:35.296Z,21.88
2022-08-31T11:09:35.297Z,21.95
2022-08-31T11:10:35.310Z,21.99
2022-08-31T11:11:35.263Z,22.04
2022-08-31T11:12:36.254Z,22.02
2022-08-31T11:13:35.232Z,22.07
2022-08-31T11:14:35.244Z,22.13
2022-08-31T11:15:35.267Z,22.16
2022-08-31T11:16:35.222Z,22.13
2022-08-31T11:17:35.222Z,22.04
2022-08-31T11:18:35.194Z,22.04
2022-08-31T11:19:35.187Z,22.07
2022-08-31T11:20:35.208Z,22.07
2022-08-31T11:21:35.294Z,22.04
2022-08-31T11:22:35.163Z,22.06
2022-08-31T11:23:35.133Z,22.06
2022-08-31T11:24:37.472Z,22.10
2022-08-31T11:25:35.114Z,22.10
2022-08-31T11:26:35.103Z,22.14
2022-08-31T11:27:35.076Z,22.19
2022-08-31T11:28:35.093Z,22.20
2022-08-31T11:29:35.061Z,22.10
2022-08-31T11:30:37.581Z,22.04
2022-08-31T11:31:36.109Z,22.07
2022-08-31T11:32:35.016Z,22.07
2022-08-31T11:33:35.091Z,22.09
2022-08-31T11:34:35.010Z,22.04
2022-08-31T11:35:34.989Z,22.09
2022-08-31T11:36:36.000Z,22.10
2022-08-31T11:37:34.978Z,22.09
2022-08-31T11:38:34.953Z,22.07
2022-08-31T11:39:34.973Z,22.17
2022-08-31T11:40:34.988Z,22.25
2022-08-31T11:41:34.915Z,22.19
2022-08-31T11:42:34.907Z,22.09
2022-08-31T11:43:34.895Z,22.07
2022-08-31T11:44:34.902Z,22.01
2022-08-31T11:45:34.880Z,21.97
2022-08-31T11:46:34.918Z,21.91
2022-08-31T11:47:34.874Z,21.85
2022-08-31T11:48:34.848Z,21.83
2022-08-31T11:49:34.832Z,21.81
2022-08-31T11:50:34.828Z,21.79
2022-08-31T11:51:40.143Z,21.79
2022-08-31T11:52:35.882Z,21.79
2022-08-31T11:53:34.781Z,21.76
2022-08-31T11:54:34.771Z,21.75
2022-08-31T11:55:34.760Z,21.74
2022-08-31T11:56:34.746Z,21.67
2022-08-31T11:57:37.739Z,21.67
2022-08-31T11:58:34.730Z,21.69
2022-08-31T11:59:34.723Z,21.67
2022-08-31T12:00:34.726Z,21.74
2022-08-31T12:01:34.694Z,21.78
2022-08-31T12:02:34.759Z,21.82
2022-08-31T12:03:34.697Z,21.88
2022-08-31T12:04:34.671Z,21.85
2022-08-31T12:05:34.715Z,21.91
2022-08-31T12:06:34.654Z,21.95
2022-08-31T12:07:34.632Z,21.98
2022-08-31T12:08:34.619Z,22.01
2022-08-31T12:09:34.597Z,22.02
2022-08-31T12:10:34.608Z,22.04
2022-08-31T12:11:34.585Z,22.04
2022-08-31T12:12:34.587Z,22.07
2022-08-31T12:13:34.572Z,22.12
2022-08-31T12:14:34.563Z,22.16
2022-08-31T12:15:34.585Z,22.17
2022-08-31T12:16:34.732Z,22.09
2022-08-31T12:17:34.501Z,22.09
2022-08-31T12:18:34.821Z,22.12
2022-08-31T12:19:34.506Z,22.14
2022-08-31T12:20:34.466Z,22.19
2022-08-31T12:21:34.463Z,22.32
2022-08-31T12:22:34.475Z,22.49
2022-08-31T12:23:34.648Z,22.65
2022-08-31T12:24:34.421Z,22.62
2022-08-31T12:25:34.421Z,22.60
2022-08-31T12:26:34.409Z,22.60
2022-08-31T12:27:34.405Z,22.62
2022-08-31T12:28:34.420Z,22.57
2022-08-31T12:29:34.372Z,22.56
2022-08-31T12:30:34.375Z,22.53
2022-08-31T12:31:34.405Z,22.41
2022-08-31T12:32:36.333Z,22.44
2022-08-31T12:33:34.325Z,22.39
2022-08-31T12:34:34.348Z,22.41
2022-08-31T12:35:34.305Z,22.43
2022-08-31T12:36:34.318Z,22.35
2022-08-31T12:37:34.277Z,22.34
2022-08-31T12:38:34.289Z,22.27
2022-08-31T12:39:34.267Z,22.25
2022-08-31T12:40:34.464Z,22.20
2022-08-31T12:41:34.245Z,22.17
2022-08-31T12:42:34.225Z,22.20
2022-08-31T12:43:34.262Z,22.23
2022-08-31T12:44:34.201Z,22.27
2022-08-31T12:45:34.220Z,22.29
2022-08-31T12:46:34.351Z,22.29
2022-08-31T12:47:34.192Z,22.28
2022-08-31T12:48:34.162Z,22.32
2022-08-31T12:49:34.181Z,22.34
2022-08-31T12:50:34.203Z,22.35
2022-08-31T12:51:34.113Z,22.35
2022-08-31T12:52:34.111Z,22.35